Time;durP1;ratioP1;P1;durP2;ratioP2;P2;SDS_P1;SDS_P2;PMS_P1;PMS_P2;Temp;Humidity;BMP_temperature;BMP_pressure;BME280_temperature;BME280_humidity;BME280_pressure;Samples;Min_cycle;Max_cycle;Signal;HPM_P1;HPM_P2
2022/02/27 00:01:31;;;;;;;6.33;2.97;;;;;;;;;;4971531;28;20428;-55
2022/02/27 00:03:57;;;;;;;7.37;2.83;;;;;;;;;;5011086;28;20467;-55
2022/02/27 00:06:24;;;;;;;6.33;3.17;;;;;;;;;;5011847;28;20990;-55
2022/02/27 00:08:50;;;;;;;5.57;2.40;;;;;;;;;;5020460;28;20518;-55
2022/02/27 00:11:16;;;;;;;9.00;2.30;;;;;;;;;;4990914;28;20512;-55
2022/02/27 00:13:42;;;;;;;12.43;3.20;;;;;;;;;;5024660;28;20967;-56
2022/02/27 00:16:08;;;;;;;5.33;2.40;;;;;;;;;;4996724;28;20476;-56
2022/02/27 00:18:35;;;;;;;7.80;3.10;;;;;;;;;;4993356;28;20434;-55
2022/02/27 00:21:01;;;;;;;7.93;2.40;;;;;;;;;;5010031;28;20578;-55
2022/02/27 00:23:28;;;;;;;4.23;2.40;;;;;;;;;;5015446;28;21256;-56
2022/02/27 00:25:54;;;;;;;7.17;3.00;;;;;;;;;;5001137;28;20468;-56
2022/02/27 00:28:20;;;;;;;3.17;2.37;;;;;;;;;;5011031;28;20455;-56
2022/02/27 00:30:47;;;;;;;5.70;2.57;;;;;;;;;;4992891;28;20432;-57
2022/02/27 00:33:13;;;;;;;5.73;2.53;;;;;;;;;;4994780;28;20432;-56
2022/02/27 00:35:39;;;;;;;6.20;2.43;;;;;;;;;;5041841;28;20447;-57
2022/02/27 00:38:06;;;;;;;6.00;2.80;;;;;;;;;;5039901;28;20427;-57
2022/02/27 00:40:33;;;;;;;6.93;2.83;;;;;;;;;;5027412;28;20178;-56
2022/02/27 00:42:59;;;;;;;3.13;2.40;;;;;;;;;;5065633;28;20511;-57
2022/02/27 00:45:25;;;;;;;6.27;2.40;;;;;;;;;;5037191;28;20464;-57
2022/02/27 00:47:51;;;;;;;5.50;2.23;;;;;;;;;;5024888;28;20465;-57
2022/02/27 00:50:18;;;;;;;11.33;3.00;;;;;;;;;;5018398;28;20526;-56
2022/02/27 00:52:45;;;;;;;5.13;2.27;;;;;;;;;;5030892;28;20424;-57
2022/02/27 00:55:11;;;;;;;5.37;2.37;;;;;;;;;;5016711;28;20444;-57
2022/02/27 00:57:38;;;;;;;7.20;2.80;;;;;;;;;;5040904;28;20471;-57
2022/02/27 01:00:05;;;;;;;6.10;2.47;;;;;;;;;;5014293;28;20444;-57
2022/02/27 01:02:32;;;;;;;6.13;2.50;;;;;;;;;;5036095;28;20609;-56
2022/02/27 01:04:58;;;;;;;5.60;2.93;;;;;;;;;;5032707;28;20548;-57
2022/02/27 01:07:24;;;;;;;5.53;2.20;;;;;;;;;;5031361;28;20447;-57
2022/02/27 01:09:50;;;;;;;5.53;2.10;;;;;;;;;;5033467;28;20931;-56
2022/02/27 01:12:17;;;;;;;5.67;2.70;;;;;;;;;;5034797;28;20768;-57
2022/02/27 01:14:43;;;;;;;7.47;2.73;;;;;;;;;;5032766;28;20461;-57
2022/02/27 01:17:10;;;;;;;5.80;2.30;;;;;;;;;;5032749;28;20515;-56
2022/02/27 01:19:37;;;;;;;4.87;2.20;;;;;;;;;;5019826;28;20923;-56
2022/02/27 01:22:03;;;;;;;5.70;2.20;;;;;;;;;;5023552;28;20444;-57
2022/02/27 01:24:30;;;;;;;7.53;3.30;;;;;;;;;;5037153;28;20439;-58
2022/02/27 01:26:56;;;;;;;3.57;2.40;;;;;;;;;;5040921;28;20455;-56
2022/02/27 01:29:22;;;;;;;2.73;2.10;;;;;;;;;;5017432;28;20429;-57
2022/02/27 01:31:49;;;;;;;5.70;2.47;;;;;;;;;;5048031;28;20435;-57
2022/02/27 01:34:16;;;;;;;7.80;2.63;;;;;;;;;;5035343;28;20465;-56
2022/02/27 01:36:42;;;;;;;5.37;2.90;;;;;;;;;;5032676;28;20775;-56
2022/02/27 01:39:08;;;;;;;8.07;2.20;;;;;;;;;;5025915;28;20845;-57
2022/02/27 01:41:35;;;;;;;4.00;2.17;;;;;;;;;;5033901;28;20471;-57
2022/02/27 01:44:01;;;;;;;6.57;2.20;;;;;;;;;;5035254;28;20180;-56
2022/02/27 01:46:27;;;;;;;5.37;2.23;;;;;;;;;;5020037;28;20463;-57
2022/02/27 01:48:53;;;;;;;6.97;2.23;;;;;;;;;;5025094;28;20704;-57
2022/02/27 01:51:19;;;;;;;4.67;2.23;;;;;;;;;;5015773;28;20437;-57
2022/02/27 01:53:47;;;;;;;10.67;1.97;;;;;;;;;;5034522;28;20772;-57
2022/02/27 01:56:14;;;;;;;4.33;2.50;;;;;;;;;;5044584;28;20206;-57
2022/02/27 01:58:40;;;;;;;4.43;2.20;;;;;;;;;;5006771;28;20455;-57
2022/02/27 02:01:06;;;;;;;2.50;1.80;;;;;;;;;;5029483;28;20819;-57
2022/02/27 02:03:32;;;;;;;3.47;2.40;;;;;;;;;;5010221;28;20842;-57
2022/02/27 02:05:58;;;;;;;4.17;1.97;;;;;;;;;;5028520;28;20460;-57
2022/02/27 02:08:25;;;;;;;7.97;2.60;;;;;;;;;;5029882;28;20431;-57
2022/02/27 02:10:51;;;;;;;7.07;2.37;;;;;;;;;;5013530;28;20472;-57
2022/02/27 02:13:18;;;;;;;5.43;2.43;;;;;;;;;;5022728;28;20465;-57
2022/02/27 02:15:44;;;;;;;5.37;1.90;;;;;;;;;;5023337;28;20502;-58
2022/02/27 02:18:10;;;;;;;4.63;2.10;;;;;;;;;;5029140;28;20441;-57
2022/02/27 02:20:39;;;;;;;9.23;2.30;;;;;;;;;;5029964;28;20431;-57
2022/02/27 02:23:06;;;;;;;3.90;2.00;;;;;;;;;;5029259;28;20456;-57
2022/02/27 02:25:32;;;;;;;5.87;2.30;;;;;;;;;;5026464;28;20995;-57
2022/02/27 02:27:58;;;;;;;3.87;1.80;;;;;;;;;;5021920;28;20437;-57
2022/02/27 02:30:25;;;;;;;4.87;2.07;;;;;;;;;;5008532;28;20793;-57
2022/02/27 02:32:54;;;;;;;4.83;2.20;;;;;;;;;;5016008;28;20949;-57
2022/02/27 02:35:20;;;;;;;6.57;2.23;;;;;;;;;;5044532;28;20861;-57
2022/02/27 02:37:47;;;;;;;6.83;2.30;;;;;;;;;;5016271;28;20432;-57
2022/02/27 02:40:14;;;;;;;6.10;2.17;;;;;;;;;;5012374;28;20667;-57
2022/02/27 02:42:40;;;;;;;3.83;2.17;;;;;;;;;;5016326;28;20437;-57
2022/02/27 02:45:07;;;;;;;8.30;2.30;;;;;;;;;;5024715;28;20423;-58
2022/02/27 02:47:33;;;;;;;4.50;2.43;;;;;;;;;;5018645;28;20425;-57
2022/02/27 02:49:59;;;;;;;6.07;2.13;;;;;;;;;;5039802;28;20855;-57
2022/02/27 02:52:26;;;;;;;3.83;1.93;;;;;;;;;;5024446;28;20946;-57
2022/02/27 02:54:52;;;;;;;6.20;2.40;;;;;;;;;;5020491;28;20798;-58
2022/02/27 02:57:19;;;;;;;4.07;1.77;;;;;;;;;;5021662;28;20965;-57
2022/02/27 02:59:45;;;;;;;3.17;2.00;;;;;;;;;;5012297;28;20447;-57
2022/02/27 03:02:12;;;;;;;3.53;1.83;;;;;;;;;;5032157;28;20432;-57
2022/02/27 03:04:38;;;;;;;5.53;2.37;;;;;;;;;;5016898;28;20444;-57
2022/02/27 03:07:04;;;;;;;5.67;2.03;;;;;;;;;;5016870;28;20456;-57
2022/02/27 03:09:33;;;;;;;4.30;1.90;;;;;;;;;;5035699;28;20443;-58
2022/02/27 03:11:59;;;;;;;6.17;1.83;;;;;;;;;;5018945;28;20446;-58
2022/02/27 03:14:25;;;;;;;7.17;1.93;;;;;;;;;;5029783;28;20432;-57
2022/02/27 03:16:52;;;;;;;7.90;2.27;;;;;;;;;;5037161;28;20434;-58
2022/02/27 03:19:18;;;;;;;3.33;1.70;;;;;;;;;;5041952;28;20730;-58
2022/02/27 03:21:44;;;;;;;10.60;1.83;;;;;;;;;;5028946;28;20490;-58
2022/02/27 03:24:10;;;;;;;4.37;1.73;;;;;;;;;;5026848;28;20428;-58
2022/02/27 03:26:36;;;;;;;5.47;2.47;;;;;;;;;;5010043;28;20522;-58
2022/02/27 03:29:03;;;;;;;4.87;2.17;;;;;;;;;;5029304;28;20432;-58
2022/02/27 03:31:29;;;;;;;4.93;2.20;;;;;;;;;;5033996;28;20573;-58
2022/02/27 03:33:56;;;;;;;4.70;2.10;;;;;;;;;;5028990;28;21048;-58
2022/02/27 03:36:22;;;;;;;3.97;1.90;;;;;;;;;;5018407;28;20433;-58
2022/02/27 03:38:48;;;;;;;4.70;1.90;;;;;;;;;;5019273;28;20440;-58
2022/02/27 03:41:14;;;;;;;4.60;2.13;;;;;;;;;;5027695;28;20475;-58
2022/02/27 03:43:40;;;;;;;4.00;2.03;;;;;;;;;;5032396;28;20432;-58
2022/02/27 03:46:06;;;;;;;7.40;2.03;;;;;;;;;;5038877;28;20495;-58
2022/02/27 03:48:33;;;;;;;3.77;1.60;;;;;;;;;;5045797;28;20424;-58
2022/02/27 03:50:59;;;;;;;7.20;2.70;;;;;;;;;;5024362;28;20927;-58
2022/02/27 03:53:25;;;;;;;6.77;2.10;;;;;;;;;;5008892;28;20448;-58
2022/02/27 03:55:52;;;;;;;9.57;2.63;;;;;;;;;;5026959;28;20650;-58
2022/02/27 03:58:18;;;;;;;9.33;2.57;;;;;;;;;;5035749;28;20417;-58
2022/02/27 04:00:45;;;;;;;3.87;1.97;;;;;;;;;;5030282;28;21090;-58
2022/02/27 04:03:11;;;;;;;5.47;2.07;;;;;;;;;;5045108;28;20483;-58
2022/02/27 04:05:37;;;;;;;2.27;1.93;;;;;;;;;;5013607;28;20460;-58
2022/02/27 04:08:04;;;;;;;5.73;1.87;;;;;;;;;;5021713;28;20427;-58
2022/02/27 04:10:31;;;;;;;5.07;2.17;;;;;;;;;;5013274;28;20516;-58
2022/02/27 04:12:57;;;;;;;4.77;2.07;;;;;;;;;;5029233;28;20485;-58
2022/02/27 04:15:23;;;;;;;3.73;2.67;;;;;;;;;;5035928;28;20987;-58
2022/02/27 04:17:49;;;;;;;5.03;2.20;;;;;;;;;;5026809;28;20762;-58
2022/02/27 04:20:15;;;;;;;5.47;2.07;;;;;;;;;;5024400;28;20444;-58
2022/02/27 04:22:41;;;;;;;4.47;2.67;;;;;;;;;;5035474;28;20634;-58
2022/02/27 04:25:08;;;;;;;4.23;2.00;;;;;;;;;;5042799;28;20432;-58
2022/02/27 04:27:34;;;;;;;5.10;2.20;;;;;;;;;;5027472;28;20443;-57
2022/02/27 04:30:00;;;;;;;5.17;2.03;;;;;;;;;;5021094;28;20438;-57
2022/02/27 04:32:26;;;;;;;8.17;2.37;;;;;;;;;;5031541;28;20428;-57
2022/02/27 04:34:52;;;;;;;7.30;2.00;;;;;;;;;;5025535;28;21006;-58
2022/02/27 04:37:19;;;;;;;7.60;2.33;;;;;;;;;;5028243;28;20459;-57
2022/02/27 04:39:46;;;;;;;7.17;2.50;;;;;;;;;;5027256;28;20449;-58
2022/02/27 04:42:12;;;;;;;4.10;2.43;;;;;;;;;;5045177;28;20934;-58
2022/02/27 04:44:38;;;;;;;7.43;2.50;;;;;;;;;;5030213;28;20437;-58
2022/02/27 04:47:05;;;;;;;5.73;2.23;;;;;;;;;;5025208;28;20963;-57
2022/02/27 04:49:31;;;;;;;3.03;2.03;;;;;;;;;;5025624;28;20516;-58
2022/02/27 04:51:57;;;;;;;4.80;2.30;;;;;;;;;;5027674;28;20524;-58
2022/02/27 04:54:23;;;;;;;6.67;2.30;;;;;;;;;;5014078;28;21231;-57
2022/02/27 04:56:50;;;;;;;4.50;2.13;;;;;;;;;;5030506;28;20542;-58
2022/02/27 04:59:16;;;;;;;4.63;1.97;;;;;;;;;;5021479;28;20606;-58
2022/02/27 05:01:42;;;;;;;3.60;2.20;;;;;;;;;;5032312;28;20579;-58
2022/02/27 05:04:09;;;;;;;5.97;2.77;;;;;;;;;;5019497;28;20937;-57
2022/02/27 05:06:35;;;;;;;4.43;2.30;;;;;;;;;;5026989;28;20463;-58
2022/02/27 05:09:01;;;;;;;5.33;2.10;;;;;;;;;;5027086;28;20431;-58
2022/02/27 05:11:28;;;;;;;4.53;2.60;;;;;;;;;;5029370;28;20436;-58
2022/02/27 05:13:54;;;;;;;6.40;2.40;;;;;;;;;;5013088;28;21094;-57
2022/02/27 05:16:20;;;;;;;5.83;2.30;;;;;;;;;;5003510;28;20534;-58
2022/02/27 05:18:46;;;;;;;10.07;2.90;;;;;;;;;;5021857;28;20946;-58
2022/02/27 05:21:13;;;;;;;3.83;2.47;;;;;;;;;;5020921;28;20432;-58
2022/02/27 05:23:39;;;;;;;6.67;2.30;;;;;;;;;;5008784;28;20803;-58
2022/02/27 05:26:05;;;;;;;6.67;3.10;;;;;;;;;;5021984;28;20471;-57
2022/02/27 05:28:31;;;;;;;10.67;2.60;;;;;;;;;;5029222;28;20902;-58
2022/02/27 05:30:57;;;;;;;6.10;2.47;;;;;;;;;;5010299;28;20459;-57
2022/02/27 05:33:23;;;;;;;6.83;2.67;;;;;;;;;;5027608;28;21602;-58
2022/02/27 05:35:50;;;;;;;9.20;3.07;;;;;;;;;;5041010;28;20467;-57
2022/02/27 05:38:16;;;;;;;6.37;3.10;;;;;;;;;;5013935;28;20465;-58
2022/02/27 05:40:42;;;;;;;8.53;3.30;;;;;;;;;;5010366;28;20446;-58
2022/02/27 05:43:08;;;;;;;5.47;2.30;;;;;;;;;;5028384;28;20443;-58
2022/02/27 05:45:35;;;;;;;7.67;2.47;;;;;;;;;;5026990;28;20472;-57
2022/02/27 05:48:01;;;;;;;4.00;2.43;;;;;;;;;;5024158;28;20449;-58
2022/02/27 05:50:27;;;;;;;6.30;2.70;;;;;;;;;;5023470;28;20463;-56
2022/02/27 05:52:54;;;;;;;3.73;2.90;;;;;;;;;;5012182;28;20648;-58
2022/02/27 05:55:20;;;;;;;3.80;2.27;;;;;;;;;;5008075;28;20433;-57
2022/02/27 05:57:46;;;;;;;7.37;2.60;;;;;;;;;;5023673;28;20455;-58
2022/02/27 06:00:12;;;;;;;4.47;2.50;;;;;;;;;;5008356;28;20516;-57
2022/02/27 06:02:39;;;;;;;4.53;2.37;;;;;;;;;;5017039;28;20527;-58
2022/02/27 06:05:05;;;;;;;5.67;2.53;;;;;;;;;;5024649;28;20437;-58
2022/02/27 06:07:31;;;;;;;5.80;2.50;;;;;;;;;;5024829;28;20469;-58
2022/02/27 06:09:58;;;;;;;5.23;2.97;;;;;;;;;;5023616;28;20436;-58
2022/02/27 06:12:24;;;;;;;7.53;3.10;;;;;;;;;;5027135;28;20872;-58
2022/02/27 06:14:51;;;;;;;3.93;2.27;;;;;;;;;;5024548;28;20464;-58
2022/02/27 06:17:17;;;;;;;6.27;2.70;;;;;;;;;;5026712;28;20901;-58
2022/02/27 06:19:43;;;;;;;5.80;2.10;;;;;;;;;;5020573;28;20462;-58
2022/02/27 06:22:09;;;;;;;4.57;2.70;;;;;;;;;;5008771;28;20931;-58
2022/02/27 06:24:35;;;;;;;7.03;2.73;;;;;;;;;;5027302;28;20442;-58
2022/02/27 06:27:02;;;;;;;6.50;3.13;;;;;;;;;;5024878;28;21101;-58
2022/02/27 06:29:28;;;;;;;6.27;2.60;;;;;;;;;;5017368;28;20515;-58
2022/02/27 06:31:54;;;;;;;5.37;2.83;;;;;;;;;;5027999;28;20518;-58
2022/02/27 06:34:20;;;;;;;6.53;2.30;;;;;;;;;;4999610;28;20461;-58
2022/02/27 06:36:46;;;;;;;5.47;2.87;;;;;;;;;;4989690;28;20996;-58
2022/02/27 06:39:13;;;;;;;6.87;2.83;;;;;;;;;;5007006;28;20503;-58
2022/02/27 06:41:39;;;;;;;5.70;2.27;;;;;;;;;;5004558;28;20438;-58
2022/02/27 06:44:07;;;;;;;4.63;2.80;;;;;;;;;;5002044;28;20488;-58
2022/02/27 06:46:33;;;;;;;6.67;3.20;;;;;;;;;;4989315;28;20458;-57
2022/02/27 06:48:59;;;;;;;7.53;2.90;;;;;;;;;;5001157;28;20430;-58
2022/02/27 06:51:26;;;;;;;5.50;2.33;;;;;;;;;;5007246;28;20422;-57
2022/02/27 06:53:52;;;;;;;3.27;2.13;;;;;;;;;;5008340;28;20453;-58
2022/02/27 06:56:19;;;;;;;4.70;2.67;;;;;;;;;;5008015;28;20798;-56
2022/02/27 06:58:45;;;;;;;8.27;3.17;;;;;;;;;;4998668;28;20942;-57
2022/02/27 07:01:11;;;;;;;9.00;3.07;;;;;;;;;;5001353;28;20432;-58
2022/02/27 07:03:38;;;;;;;7.97;2.63;;;;;;;;;;5001425;28;20417;-58
2022/02/27 07:06:04;;;;;;;8.10;3.10;;;;;;;;;;5005282;28;21027;-58
2022/02/27 07:08:30;;;;;;;9.83;3.20;;;;;;;;;;4998957;28;20422;-58
2022/02/27 07:11:00;;;;;;;4.90;2.33;;;;;;;;;;4979996;28;20814;-58
2022/02/27 07:13:26;;;;;;;5.07;2.40;;;;;;;;;;4996894;28;20514;-58
2022/02/27 07:15:52;;;;;;;4.20;2.47;;;;;;;;;;4995240;28;20700;-58
2022/02/27 07:18:18;;;;;;;4.63;2.43;;;;;;;;;;4988086;28;20768;-57
2022/02/27 07:20:45;;;;;;;6.20;2.90;;;;;;;;;;5005790;28;20436;-58
2022/02/27 07:23:11;;;;;;;6.13;3.70;;;;;;;;;;4992860;28;20425;-57
2022/02/27 07:25:38;;;;;;;5.70;3.10;;;;;;;;;;5006665;28;21002;-57
2022/02/27 07:28:05;;;;;;;6.23;4.10;;;;;;;;;;5007441;28;20656;-57
2022/02/27 07:30:31;;;;;;;5.57;3.03;;;;;;;;;;5005841;28;20556;-57
2022/02/27 07:32:57;;;;;;;7.60;3.07;;;;;;;;;;5008626;28;20645;-57
2022/02/27 07:35:23;;;;;;;6.67;3.40;;;;;;;;;;5020504;28;20451;-57
2022/02/27 07:37:49;;;;;;;3.47;2.83;;;;;;;;;;5025684;28;20899;-57
2022/02/27 07:40:15;;;;;;;8.43;3.80;;;;;;;;;;5009889;28;20479;-57
2022/02/27 07:42:44;;;;;;;6.87;3.27;;;;;;;;;;5020457;28;20439;-57
2022/02/27 07:45:12;;;;;;;7.17;3.57;;;;;;;;;;5025177;28;20468;-57
2022/02/27 07:47:38;;;;;;;6.03;4.10;;;;;;;;;;5033299;28;20427;-57
2022/02/27 07:50:04;;;;;;;6.53;3.40;;;;;;;;;;5035763;28;20413;-57
2022/02/27 07:52:30;;;;;;;11.57;3.10;;;;;;;;;;5012299;28;20443;-56
2022/02/27 07:54:57;;;;;;;6.00;3.10;;;;;;;;;;5027966;28;20935;-56
2022/02/27 07:57:23;;;;;;;8.23;3.30;;;;;;;;;;5026769;28;20897;-57
2022/02/27 07:59:49;;;;;;;4.87;3.10;;;;;;;;;;5028183;28;20428;-56
2022/02/27 08:02:15;;;;;;;6.87;3.67;;;;;;;;;;5029140;28;20680;-56
2022/02/27 08:04:42;;;;;;;8.90;3.30;;;;;;;;;;5025430;28;20432;-57
2022/02/27 08:07:08;;;;;;;4.90;3.40;;;;;;;;;;5028639;28;20471;-57
2022/02/27 08:09:34;;;;;;;6.00;3.30;;;;;;;;;;5034881;28;20966;-57
2022/02/27 08:12:00;;;;;;;6.57;3.23;;;;;;;;;;5030598;28;20755;-57
2022/02/27 08:14:26;;;;;;;5.47;3.03;;;;;;;;;;5028676;28;20416;-57
2022/02/27 08:16:53;;;;;;;5.17;2.97;;;;;;;;;;5011650;28;20754;-57
2022/02/27 08:19:19;;;;;;;4.97;2.90;;;;;;;;;;5026802;28;20432;-58
2022/02/27 08:21:45;;;;;;;7.03;3.27;;;;;;;;;;5027542;28;20181;-57
2022/02/27 08:24:11;;;;;;;5.10;3.37;;;;;;;;;;5032104;28;20468;-57
2022/02/27 08:26:37;;;;;;;6.27;3.27;;;;;;;;;;5030754;28;20502;-58
2022/02/27 08:29:06;;;;;;;6.60;3.03;;;;;;;;;;5029877;28;20464;-57
2022/02/27 08:31:39;;;;;;;7.83;3.03;;;;;;;;;;5028724;28;20420;-58
2022/02/27 08:34:05;;;;;;;7.10;3.70;;;;;;;;;;5023237;28;20496;-58
2022/02/27 08:36:32;;;;;;;5.63;3.67;;;;;;;;;;5023786;28;20529;-58
2022/02/27 08:38:59;;;;;;;6.13;3.03;;;;;;;;;;5028239;28;20770;-57
2022/02/27 08:41:26;;;;;;;5.73;3.83;;;;;;;;;;5011834;28;20959;-58
2022/02/27 08:43:53;;;;;;;6.50;3.40;;;;;;;;;;4998488;28;20831;-57
2022/02/27 08:46:20;;;;;;;9.17;3.47;;;;;;;;;;5011421;28;20541;-57
2022/02/27 08:48:46;;;;;;;8.60;2.90;;;;;;;;;;5005033;28;20748;-58
2022/02/27 08:51:12;;;;;;;3.07;2.77;;;;;;;;;;5003608;28;20418;-57
2022/02/27 08:53:39;;;;;;;4.23;2.80;;;;;;;;;;4997198;28;20410;-57
2022/02/27 08:56:05;;;;;;;5.87;3.27;;;;;;;;;;5000939;28;20422;-58
2022/02/27 08:58:31;;;;;;;11.30;3.20;;;;;;;;;;5000246;28;20436;-57
2022/02/27 09:00:57;;;;;;;5.50;2.97;;;;;;;;;;5004108;28;20608;-57
2022/02/27 09:03:27;;;;;;;6.77;3.13;;;;;;;;;;5012963;28;20425;-57
2022/02/27 09:05:53;;;;;;;3.93;3.10;;;;;;;;;;4984192;28;20456;-57
2022/02/27 09:08:20;;;;;;;4.77;2.90;;;;;;;;;;5009909;28;20418;-57
2022/02/27 09:10:46;;;;;;;4.53;2.73;;;;;;;;;;5017596;28;20418;-57
2022/02/27 09:13:12;;;;;;;4.80;2.80;;;;;;;;;;5010071;28;20431;-58
2022/02/27 09:15:39;;;;;;;6.40;3.37;;;;;;;;;;5005346;28;20532;-57
2022/02/27 09:18:05;;;;;;;4.97;2.57;;;;;;;;;;4993632;28;20182;-56
2022/02/27 09:20:32;;;;;;;6.03;2.67;;;;;;;;;;4996404;28;20206;-57
2022/02/27 09:22:58;;;;;;;3.73;2.53;;;;;;;;;;5007957;28;20187;-57
2022/02/27 09:25:25;;;;;;;3.60;2.47;;;;;;;;;;5007371;28;20429;-57
2022/02/27 09:27:51;;;;;;;3.83;2.37;;;;;;;;;;5022454;28;20186;-58
2022/02/27 09:30:20;;;;;;;4.63;3.13;;;;;;;;;;4995957;28;20181;-57
2022/02/27 09:32:46;;;;;;;5.57;3.00;;;;;;;;;;4999278;28;20430;-57
2022/02/27 09:35:13;;;;;;;3.73;2.63;;;;;;;;;;5023413;28;20215;-57
2022/02/27 09:37:39;;;;;;;4.13;2.60;;;;;;;;;;5005764;28;20418;-57
2022/02/27 09:40:06;;;;;;;2.47;2.00;;;;;;;;;;5007896;28;20540;-57
2022/02/27 09:42:33;;;;;;;2.43;2.07;;;;;;;;;;5018803;28;20182;-57
2022/02/27 09:45:00;;;;;;;4.10;2.33;;;;;;;;;;4998546;28;20216;-57
2022/02/27 09:47:27;;;;;;;4.50;2.47;;;;;;;;;;4999554;28;20413;-58
2022/02/27 09:49:55;;;;;;;3.10;1.93;;;;;;;;;;5020078;28;20249;-58
2022/02/27 09:52:25;;;;;;;2.60;2.07;;;;;;;;;;5020355;28;20266;-57
2022/02/27 09:54:51;;;;;;;4.07;2.17;;;;;;;;;;5005226;28;20183;-57
2022/02/27 09:57:21;;;;;;;3.47;2.50;;;;;;;;;;5005133;28;20564;-57
2022/02/27 09:59:48;;;;;;;3.27;2.00;;;;;;;;;;5008271;28;20210;-57
2022/02/27 10:02:17;;;;;;;2.93;2.00;;;;;;;;;;4994857;28;20555;-58
2022/02/27 10:04:45;;;;;;;2.60;1.67;;;;;;;;;;5011196;28;20645;-58
2022/02/27 10:07:18;;;;;;;3.00;1.90;;;;;;;;;;5000405;28;20204;-57
2022/02/27 10:09:45;;;;;;;2.80;2.20;;;;;;;;;;5017635;28;20187;-57
2022/02/27 10:12:16;;;;;;;3.20;1.70;;;;;;;;;;4999257;28;20660;-57
2022/02/27 10:15:02;;;;;;;2.47;1.50;;;;;;;;;;5005253;28;20286;-57
2022/02/27 10:17:30;;;;;;;4.37;1.83;;;;;;;;;;5001664;28;20676;-57
2022/02/27 10:19:56;;;;;;;2.00;1.73;;;;;;;;;;5016074;28;20619;-57
2022/02/27 10:22:32;;;;;;;2.33;1.73;;;;;;;;;;5007925;28;20245;-57
2022/02/27 10:25:06;;;;;;;3.50;2.00;;;;;;;;;;5003539;28;20183;-58
2022/02/27 10:27:43;;;;;;;1.57;1.47;;;;;;;;;;5002141;28;20207;-57
2022/02/27 10:30:15;;;;;;;3.03;2.03;;;;;;;;;;5006258;28;20178;-57
2022/02/27 10:32:48;;;;;;;5.37;1.90;;;;;;;;;;5020415;28;20174;-56
2022/02/27 10:35:33;;;;;;;3.30;2.30;;;;;;;;;;5016066;28;20218;-57
2022/02/27 10:38:00;;;;;;;3.87;1.77;;;;;;;;;;5018595;28;20563;-57
2022/02/27 10:40:30;;;;;;;2.20;1.60;;;;;;;;;;5023953;28;20252;-57
2022/02/27 10:42:59;;;;;;;3.27;1.67;;;;;;;;;;5024086;28;20221;-57
2022/02/27 10:45:26;;;;;;;2.43;1.50;;;;;;;;;;5024902;28;20209;-57
2022/02/27 10:48:00;;;;;;;4.33;2.00;;;;;;;;;;5008939;28;20553;-57
2022/02/27 10:50:29;;;;;;;7.70;1.87;;;;;;;;;;5016950;28;20178;-56
2022/02/27 10:52:55;;;;;;;3.10;2.10;;;;;;;;;;5028938;28;20675;-58
2022/02/27 10:55:21;;;;;;;1.87;1.60;;;;;;;;;;5026689;28;20170;-57
2022/02/27 10:57:50;;;;;;;2.00;1.80;;;;;;;;;;5021390;28;20698;-56
2022/02/27 11:00:36;;;;;;;4.27;1.70;;;;;;;;;;5019928;28;20202;-58
2022/02/27 11:03:09;;;;;;;11.50;2.13;;;;;;;;;;5021539;28;20625;-58
2022/02/27 11:05:36;;;;;;;2.10;1.70;;;;;;;;;;5021699;28;20367;-56
2022/02/27 11:08:04;;;;;;;4.07;1.70;;;;;;;;;;5021152;28;20206;-58
2022/02/27 11:10:32;;;;;;;3.50;1.90;;;;;;;;;;5022131;28;20205;-58
2022/02/27 11:12:59;;;;;;;3.70;2.00;;;;;;;;;;5013822;28;20270;-58
2022/02/27 11:15:28;;;;;;;5.73;1.87;;;;;;;;;;5024015;28;20174;-57
2022/02/27 11:17:54;;;;;;;3.60;1.80;;;;;;;;;;5022958;28;20668;-57
2022/02/27 11:20:21;;;;;;;3.73;2.20;;;;;;;;;;5040293;28;20219;-57
2022/02/27 11:22:48;;;;;;;2.63;1.93;;;;;;;;;;5018674;28;20645;-57
2022/02/27 11:25:14;;;;;;;3.23;1.70;;;;;;;;;;5041665;28;20177;-54
2022/02/27 11:27:44;;;;;;;2.97;1.67;;;;;;;;;;5040848;28;20223;-56
2022/02/27 11:30:17;;;;;;;2.93;1.70;;;;;;;;;;5041296;28;20625;-56
2022/02/27 11:32:57;;;;;;;1.83;1.60;;;;;;;;;;5023426;28;20166;-56
2022/02/27 11:35:45;;;;;;;2.20;1.60;;;;;;;;;;5028538;28;20224;-57
2022/02/27 11:38:18;;;;;;;4.40;1.70;;;;;;;;;;5043623;28;20188;-55
2022/02/27 11:40:47;;;;;;;3.97;2.17;;;;;;;;;;5033523;28;20613;-56
2022/02/27 11:43:17;;;;;;;4.47;2.27;;;;;;;;;;5023637;28;20181;-56
2022/02/27 11:45:43;;;;;;;3.50;1.87;;;;;;;;;;5042052;28;20197;-56
2022/02/27 11:48:10;;;;;;;3.63;1.83;;;;;;;;;;5039417;28;20576;-56
2022/02/27 11:50:40;;;;;;;6.00;1.97;;;;;;;;;;5017771;28;20181;-58
2022/02/27 11:53:27;;;;;;;3.97;1.73;;;;;;;;;;5027069;28;20194;-56
2022/02/27 11:55:54;;;;;;;2.60;1.70;;;;;;;;;;5010745;28;20595;-57
2022/02/27 11:58:40;;;;;;;2.30;1.57;;;;;;;;;;5009547;28;20211;-57
2022/02/27 12:01:07;;;;;;;3.03;1.80;;;;;;;;;;5037927;28;20410;-57
2022/02/27 12:03:34;;;;;;;2.43;1.70;;;;;;;;;;5032578;28;20652;-57
2022/02/27 12:06:04;;;;;;;1.67;1.40;;;;;;;;;;5013769;28;20695;-57
2022/02/27 12:08:40;;;;;;;2.07;1.47;;;;;;;;;;5038397;28;20264;-57
2022/02/27 12:11:27;;;;;;;3.97;1.70;;;;;;;;;;5015169;28;20213;-57
2022/02/27 12:13:53;;;;;;;3.23;1.63;;;;;;;;;;5018739;28;20190;-57
2022/02/27 12:16:35;;;;;;;2.37;1.60;;;;;;;;;;5013796;28;20204;-57
2022/02/27 12:19:01;;;;;;;2.40;1.80;;;;;;;;;;5013971;28;20185;-57
2022/02/27 12:21:38;;;;;;;3.43;1.60;;;;;;;;;;5018866;28;20213;-57
2022/02/27 12:24:08;;;;;;;3.60;2.27;;;;;;;;;;5027289;28;20227;-57
2022/02/27 12:26:37;;;;;;;2.90;1.30;;;;;;;;;;5021111;28;20209;-58
2022/02/27 12:29:07;;;;;;;2.53;1.53;;;;;;;;;;5012062;28;20179;-58
2022/02/27 12:31:35;;;;;;;2.67;1.97;;;;;;;;;;5022848;28;20181;-58
2022/02/27 12:34:21;;;;;;;1.87;1.40;;;;;;;;;;5020847;28;20334;-57
2022/02/27 12:36:52;;;;;;;1.87;1.50;;;;;;;;;;5027924;28;20227;-57
2022/02/27 12:39:20;;;;;;;2.43;1.70;;;;;;;;;;5033363;28;20198;-58
2022/02/27 12:41:48;;;;;;;1.87;1.63;;;;;;;;;;4994323;28;20255;-58
2022/02/27 12:44:19;;;;;;;1.60;1.50;;;;;;;;;;5037919;28;20189;-58
2022/02/27 12:46:48;;;;;;;2.83;1.80;;;;;;;;;;5023969;28;20210;-58
2022/02/27 12:52:00;;;;;;;2.00;1.70;;;;;;;;;;5031484;28;20196;-59
2022/02/27 12:54:36;;;;;;;1.63;1.53;;;;;;;;;;5027418;28;20243;-59
2022/02/27 12:57:04;;;;;;;3.37;1.73;;;;;;;;;;5011995;28;20727;-59
2022/02/27 12:59:38;;;;;;;3.57;2.13;;;;;;;;;;5038375;28;20644;-59
2022/02/27 13:02:05;;;;;;;2.07;1.70;;;;;;;;;;5035793;28;20648;-59
2022/02/27 13:04:32;;;;;;;1.37;1.27;;;;;;;;;;5019356;28;20186;-59
2022/02/27 13:07:00;;;;;;;2.40;1.97;;;;;;;;;;5009446;28;20669;-59
2022/02/27 13:09:27;;;;;;;3.30;1.57;;;;;;;;;;5043170;28;20189;-59
2022/02/27 13:11:54;;;;;;;2.70;1.60;;;;;;;;;;5014690;28;20687;-59
2022/02/27 13:14:25;;;;;;;3.33;1.93;;;;;;;;;;5029315;28;20898;-59
2022/02/27 13:16:57;;;;;;;2.40;1.67;;;;;;;;;;5028310;28;20214;-59
2022/02/27 13:19:34;;;;;;;1.90;1.70;;;;;;;;;;5011979;28;20313;-59
2022/02/27 13:22:01;;;;;;;4.23;2.10;;;;;;;;;;5032070;28;20220;-57
2022/02/27 13:24:35;;;;;;;1.80;1.57;;;;;;;;;;5039537;28;20185;-59
2022/02/27 13:27:02;;;;;;;2.00;1.80;;;;;;;;;;5023614;28;20288;-59
2022/02/27 13:29:33;;;;;;;3.77;1.73;;;;;;;;;;5019004;28;20250;-58
2022/02/27 13:31:59;;;;;;;1.80;1.67;;;;;;;;;;5006339;28;20197;-59
2022/02/27 13:34:26;;;;;;;2.47;1.80;;;;;;;;;;5003772;28;20728;-59
2022/02/27 13:36:52;;;;;;;3.47;2.23;;;;;;;;;;5009058;28;20190;-59
2022/02/27 13:39:19;;;;;;;4.60;1.90;;;;;;;;;;5003781;28;20185;-59
2022/02/27 13:41:45;;;;;;;2.40;1.80;;;;;;;;;;5008467;28;20183;-59
2022/02/27 13:44:14;;;;;;;2.20;1.80;;;;;;;;;;5020883;28;20183;-59
2022/02/27 13:46:40;;;;;;;3.90;1.73;;;;;;;;;;5040085;28;20197;-59
2022/02/27 13:49:11;;;;;;;3.40;1.90;;;;;;;;;;5018498;28;20190;-59
2022/02/27 13:51:38;;;;;;;2.30;1.70;;;;;;;;;;5010568;28;20198;-59
2022/02/27 13:54:16;;;;;;;3.03;1.80;;;;;;;;;;5028775;28;20185;-59
2022/02/27 13:56:58;;;;;;;2.23;1.77;;;;;;;;;;5031085;28;20217;-59
2022/02/27 13:59:24;;;;;;;3.20;2.43;;;;;;;;;;5015770;28;20190;-59
2022/02/27 14:02:01;;;;;;;2.57;1.87;;;;;;;;;;5050972;28;20268;-58
2022/02/27 14:04:27;;;;;;;3.07;2.00;;;;;;;;;;5039184;28;20623;-59
2022/02/27 14:06:53;;;;;;;2.80;1.83;;;;;;;;;;5048831;28;20204;-59
2022/02/27 14:09:19;;;;;;;2.00;1.73;;;;;;;;;;5031120;28;20634;-59
2022/02/27 14:11:46;;;;;;;4.20;1.70;;;;;;;;;;5015273;28;20181;-59
2022/02/27 14:14:12;;;;;;;2.23;1.73;;;;;;;;;;5020031;28;20628;-56
2022/02/27 14:16:42;;;;;;;2.87;2.27;;;;;;;;;;5012220;28;20590;-57
2022/02/27 14:19:21;;;;;;;2.33;1.67;;;;;;;;;;5018051;28;20214;-55
2022/02/27 14:21:47;;;;;;;2.23;1.97;;;;;;;;;;5016495;28;20184;-58
2022/02/27 14:24:18;;;;;;;8.13;1.90;;;;;;;;;;5028112;28;20528;-58
2022/02/27 14:26:55;;;;;;;7.63;2.20;;;;;;;;;;5021490;28;20237;-59
2022/02/27 14:29:21;;;;;;;3.27;2.20;;;;;;;;;;5029512;28;20782;-59
2022/02/27 14:31:51;;;;;;;3.57;2.30;;;;;;;;;;5023368;28;20178;-60
2022/02/27 14:34:20;;;;;;;4.63;2.17;;;;;;;;;;5036897;28;20225;-58
2022/02/27 14:36:47;;;;;;;6.83;3.83;;;;;;;;;;5026739;28;20325;-57
2022/02/27 14:39:15;;;;;;;3.47;2.20;;;;;;;;;;5043989;28;20572;-58
2022/02/27 14:41:45;;;;;;;3.53;2.50;;;;;;;;;;5028143;28;20181;-57
2022/02/27 14:44:12;;;;;;;3.93;2.30;;;;;;;;;;5041112;28;20220;-56
2022/02/27 14:46:38;;;;;;;3.20;2.10;;;;;;;;;;5013850;28;20198;-56
2022/02/27 14:49:09;;;;;;;3.53;2.20;;;;;;;;;;5039449;28;20173;-58